ESSV/VBY METAR and TAF weather

Enter ICAO airport designator
Station Type Date Time Source
ESSV METAR 2021/09/16 22:20 UTC NOAA

ESSV 162220Z AUTO 09012KT 4400 BR BKN006/// OVC009/// 12/11 Q1012


Station Type Date Time Source
ESSV Decoded METAR 2021/09/16 22:20 UTC NOAA

Visby Flygplats, Sweden (ESSV) 57-40N 018-21E 47M
Sep 16, 2021 - 06:20 PM EDT / 2021.09.16 2220 UTC
Wind: from the E (090 degrees) at 14 MPH (12 KT):0
Visibility: 2 mile(s):0
Sky conditions: overcast
Weather: mist
Temperature: 53 F (12 C)
Dew Point: 51 F (11 C)
Relative Humidity: 93%
Pressure (altimeter): 29.88 in. Hg (1012 hPa)
ob: ESSV 162220Z AUTO 09012KT 4400 BR BKN006/// OVC009/// 12/11 Q1012
cycle: 22

Station Type Date Time Source
ESSV TAF 2017/09/20 09:39 UTC NOAA

TAF COR TAF COR ESSV 200840Z 2009/2021 10005KT 9999 BKN030 PROB40 2009/2016 4000 TS SHRA BKN015CB

Example: see airport list